sensor_id;sensor_type;location;lat;lon;timestamp;P1;durP1;ratioP1;P2;durP2;ratioP2
31798;SDS011;18374;51.136;3.502;2023-05-19T00:02:36;14.25;;;7.88;;
31798;SDS011;18374;51.136;3.502;2023-05-19T00:05:05;17.23;;;8.60;;
31798;SDS011;18374;51.136;3.502;2023-05-19T00:07:34;15.45;;;8.45;;
31798;SDS011;18374;51.136;3.502;2023-05-19T00:10:05;17.38;;;8.73;;
31798;SDS011;18374;51.136;3.502;2023-05-19T00:12:33;16.27;;;8.52;;
31798;SDS011;18374;51.136;3.502;2023-05-19T00:15:03;16.77;;;8.73;;
31798;SDS011;18374;51.136;3.502;2023-05-19T00:17:32;17.75;;;8.75;;
31798;SDS011;18374;51.136;3.502;2023-05-19T00:20:00;15.55;;;8.70;;
31798;SDS011;18374;51.136;3.502;2023-05-19T00:22:33;19.25;;;8.32;;
31798;SDS011;18374;51.136;3.502;2023-05-19T00:25:03;20.83;;;9.77;;
31798;SDS011;18374;51.136;3.502;2023-05-19T00:27:32;18.98;;;8.90;;
31798;SDS011;18374;51.136;3.502;2023-05-19T00:30:00;17.48;;;8.82;;
31798;SDS011;18374;51.136;3.502;2023-05-19T00:32:35;16.27;;;8.80;;
31798;SDS011;18374;51.136;3.502;2023-05-19T00:35:03;15.65;;;8.48;;
31798;SDS011;18374;51.136;3.502;2023-05-19T00:37:31;15.80;;;8.82;;
31798;SDS011;18374;51.136;3.502;2023-05-19T00:39:59;18.20;;;9.40;;
31798;SDS011;18374;51.136;3.502;2023-05-19T00:42:27;14.68;;;8.80;;
31798;SDS011;18374;51.136;3.502;2023-05-19T00:44:55;17.95;;;8.38;;
31798;SDS011;18374;51.136;3.502;2023-05-19T00:47:22;15.50;;;8.93;;
31798;SDS011;18374;51.136;3.502;2023-05-19T00:49:50;16.85;;;9.25;;
31798;SDS011;18374;51.136;3.502;2023-05-19T00:52:18;16.95;;;9.35;;
31798;SDS011;18374;51.136;3.502;2023-05-19T00:54:46;16.23;;;9.43;;
31798;SDS011;18374;51.136;3.502;2023-05-19T00:57:16;17.88;;;9.05;;
31798;SDS011;18374;51.136;3.502;2023-05-19T00:59:44;19.98;;;9.38;;
31798;SDS011;18374;51.136;3.502;2023-05-19T01:02:11;16.88;;;9.38;;
31798;SDS011;18374;51.136;3.502;2023-05-19T01:04:40;17.73;;;9.13;;
31798;SDS011;18374;51.136;3.502;2023-05-19T01:07:10;19.73;;;9.88;;
31798;SDS011;18374;51.136;3.502;2023-05-19T01:09:38;16.95;;;9.27;;
31798;SDS011;18374;51.136;3.502;2023-05-19T01:12:07;18.63;;;9.95;;
31798;SDS011;18374;51.136;3.502;2023-05-19T01:14:35;24.55;;;11.73;;
31798;SDS011;18374;51.136;3.502;2023-05-19T01:17:05;23.92;;;10.18;;
31798;SDS011;18374;51.136;3.502;2023-05-19T01:25:35;19.55;;;10.30;;
31798;SDS011;18374;51.136;3.502;2023-05-19T01:31:20;21.77;;;10.50;;
31798;SDS011;18374;51.136;3.502;2023-05-19T01:33:52;22.05;;;10.48;;
31798;SDS011;18374;51.136;3.502;2023-05-19T01:36:20;18.48;;;10.55;;
31798;SDS011;18374;51.136;3.502;2023-05-19T01:38:50;26.98;;;10.35;;
31798;SDS011;18374;51.136;3.502;2023-05-19T01:41:21;25.73;;;10.82;;
31798;SDS011;18374;51.136;3.502;2023-05-19T01:43:50;24.50;;;11.23;;
31798;SDS011;18374;51.136;3.502;2023-05-19T01:46:21;23.98;;;11.15;;
31798;SDS011;18374;51.136;3.502;2023-05-19T01:48:50;27.38;;;11.57;;
31798;SDS011;18374;51.136;3.502;2023-05-19T01:51:19;21.67;;;10.27;;
31798;SDS011;18374;51.136;3.502;2023-05-19T01:53:48;18.95;;;10.57;;
31798;SDS011;18374;51.136;3.502;2023-05-19T01:56:18;21.08;;;10.43;;
31798;SDS011;18374;51.136;3.502;2023-05-19T01:58:58;18.15;;;9.57;;
31798;SDS011;18374;51.136;3.502;2023-05-19T02:01:47;18.55;;;10.07;;
31798;SDS011;18374;51.136;3.502;2023-05-19T02:04:35;24.20;;;10.45;;
31798;SDS011;18374;51.136;3.502;2023-05-19T02:07:33;21.55;;;10.57;;
31798;SDS011;18374;51.136;3.502;2023-05-19T02:10:21;16.23;;;9.02;;
31798;SDS011;18374;51.136;3.502;2023-05-19T02:12:54;17.73;;;10.00;;
31798;SDS011;18374;51.136;3.502;2023-05-19T02:15:28;23.00;;;11.48;;
31798;SDS011;18374;51.136;3.502;2023-05-19T02:18:05;22.77;;;10.98;;
31798;SDS011;18374;51.136;3.502;2023-05-19T02:20:38;24.33;;;10.30;;
31798;SDS011;18374;51.136;3.502;2023-05-19T02:23:07;21.58;;;11.68;;
31798;SDS011;18374;51.136;3.502;2023-05-19T02:25:34;22.30;;;11.73;;
31798;SDS011;18374;51.136;3.502;2023-05-19T02:28:02;17.63;;;10.68;;
31798;SDS011;18374;51.136;3.502;2023-05-19T02:30:30;22.80;;;11.65;;
31798;SDS011;18374;51.136;3.502;2023-05-19T02:32:59;24.77;;;10.73;;
31798;SDS011;18374;51.136;3.502;2023-05-19T02:35:27;21.50;;;11.60;;
31798;SDS011;18374;51.136;3.502;2023-05-19T02:37:55;21.80;;;11.48;;
31798;SDS011;18374;51.136;3.502;2023-05-19T02:40:24;20.25;;;11.27;;
31798;SDS011;18374;51.136;3.502;2023-05-19T02:42:52;25.33;;;12.13;;
31798;SDS011;18374;51.136;3.502;2023-05-19T02:45:20;20.15;;;11.52;;
31798;SDS011;18374;51.136;3.502;2023-05-19T02:47:47;20.63;;;11.32;;
31798;SDS011;18374;51.136;3.502;2023-05-19T02:50:15;21.63;;;11.98;;
31798;SDS011;18374;51.136;3.502;2023-05-19T02:52:45;24.88;;;11.77;;
31798;SDS011;18374;51.136;3.502;2023-05-19T02:55:13;21.23;;;11.82;;
31798;SDS011;18374;51.136;3.502;2023-05-19T02:57:43;26.08;;;11.40;;
31798;SDS011;18374;51.136;3.502;2023-05-19T03:00:11;21.38;;;11.00;;
31798;SDS011;18374;51.136;3.502;2023-05-19T03:02:40;20.67;;;11.65;;
31798;SDS011;18374;51.136;3.502;2023-05-19T03:05:10;18.73;;;11.25;;
31798;SDS011;18374;51.136;3.502;2023-05-19T03:07:37;23.73;;;10.93;;
31798;SDS011;18374;51.136;3.502;2023-05-19T03:10:05;23.77;;;11.05;;
31798;SDS011;18374;51.136;3.502;2023-05-19T03:12:34;19.90;;;11.40;;
31798;SDS011;18374;51.136;3.502;2023-05-19T03:15:02;24.98;;;12.82;;
31798;SDS011;18374;51.136;3.502;2023-05-19T03:17:30;25.40;;;12.27;;
31798;SDS011;18374;51.136;3.502;2023-05-19T03:20:00;26.48;;;12.65;;
31798;SDS011;18374;51.136;3.502;2023-05-19T03:22:28;25.75;;;12.82;;
31798;SDS011;18374;51.136;3.502;2023-05-19T03:24:56;24.50;;;11.57;;
31798;SDS011;18374;51.136;3.502;2023-05-19T03:27:25;26.75;;;12.88;;
31798;SDS011;18374;51.136;3.502;2023-05-19T03:29:53;27.90;;;13.05;;
31798;SDS011;18374;51.136;3.502;2023-05-19T03:32:22;26.60;;;13.07;;
31798;SDS011;18374;51.136;3.502;2023-05-19T03:34:50;30.98;;;13.63;;
31798;SDS011;18374;51.136;3.502;2023-05-19T03:37:18;25.70;;;12.68;;
31798;SDS011;18374;51.136;3.502;2023-05-19T03:39:46;25.13;;;12.07;;
31798;SDS011;18374;51.136;3.502;2023-05-19T03:42:14;23.10;;;12.63;;
31798;SDS011;18374;51.136;3.502;2023-05-19T03:44:42;24.20;;;12.68;;
31798;SDS011;18374;51.136;3.502;2023-05-19T03:47:11;21.42;;;12.65;;
31798;SDS011;18374;51.136;3.502;2023-05-19T03:49:59;23.45;;;12.45;;
31798;SDS011;18374;51.136;3.502;2023-05-19T03:52:46;25.70;;;12.30;;
31798;SDS011;18374;51.136;3.502;2023-05-19T03:55:27;23.80;;;11.55;;
31798;SDS011;18374;51.136;3.502;2023-05-19T03:57:56;21.73;;;11.90;;
31798;SDS011;18374;51.136;3.502;2023-05-19T04:00:24;23.23;;;12.52;;
31798;SDS011;18374;51.136;3.502;2023-05-19T04:02:51;23.73;;;12.63;;
31798;SDS011;18374;51.136;3.502;2023-05-19T04:05:19;20.80;;;12.15;;
31798;SDS011;18374;51.136;3.502;2023-05-19T04:07:47;28.13;;;13.13;;
31798;SDS011;18374;51.136;3.502;2023-05-19T04:10:16;25.83;;;12.05;;
31798;SDS011;18374;51.136;3.502;2023-05-19T04:12:46;23.15;;;12.05;;
31798;SDS011;18374;51.136;3.502;2023-05-19T04:15:15;24.27;;;11.20;;
31798;SDS011;18374;51.136;3.502;2023-05-19T04:17:44;25.02;;;11.05;;
31798;SDS011;18374;51.136;3.502;2023-05-19T04:20:12;25.98;;;11.52;;
31798;SDS011;18374;51.136;3.502;2023-05-19T04:22:40;27.38;;;11.48;;
31798;SDS011;18374;51.136;3.502;2023-05-19T04:25:08;20.42;;;11.73;;
31798;SDS011;18374;51.136;3.502;2023-05-19T04:27:36;23.17;;;10.27;;
31798;SDS011;18374;51.136;3.502;2023-05-19T04:30:08;20.00;;;10.50;;
31798;SDS011;18374;51.136;3.502;2023-05-19T04:32:37;18.10;;;10.45;;
31798;SDS011;18374;51.136;3.502;2023-05-19T04:35:06;21.17;;;10.73;;
31798;SDS011;18374;51.136;3.502;2023-05-19T04:37:34;18.92;;;10.07;;
31798;SDS011;18374;51.136;3.502;2023-05-19T04:40:04;25.15;;;10.77;;
31798;SDS011;18374;51.136;3.502;2023-05-19T04:42:36;20.10;;;10.40;;
31798;SDS011;18374;51.136;3.502;2023-05-19T04:45:08;17.15;;;10.00;;
31798;SDS011;18374;51.136;3.502;2023-05-19T04:47:41;22.42;;;10.25;;
31798;SDS011;18374;51.136;3.502;2023-05-19T04:50:09;17.00;;;9.27;;
31798;SDS011;18374;51.136;3.502;2023-05-19T04:52:37;19.08;;;9.07;;
31798;SDS011;18374;51.136;3.502;2023-05-19T04:55:05;26.50;;;9.65;;
31798;SDS011;18374;51.136;3.502;2023-05-19T04:57:34;26.67;;;10.00;;
31798;SDS011;18374;51.136;3.502;2023-05-19T05:00:04;21.15;;;9.48;;
31798;SDS011;18374;51.136;3.502;2023-05-19T05:02:44;17.13;;;9.38;;
31798;SDS011;18374;51.136;3.502;2023-05-19T05:05:12;18.00;;;8.98;;
31798;SDS011;18374;51.136;3.502;2023-05-19T05:07:41;20.50;;;9.57;;
31798;SDS011;18374;51.136;3.502;2023-05-19T05:10:10;23.10;;;9.23;;
31798;SDS011;18374;51.136;3.502;2023-05-19T05:12:39;15.57;;;8.15;;
31798;SDS011;18374;51.136;3.502;2023-05-19T05:15:07;16.17;;;8.98;;
31798;SDS011;18374;51.136;3.502;2023-05-19T05:17:36;17.25;;;9.60;;
31798;SDS011;18374;51.136;3.502;2023-05-19T05:20:05;19.55;;;8.77;;
31798;SDS011;18374;51.136;3.502;2023-05-19T05:22:34;21.25;;;9.15;;
31798;SDS011;18374;51.136;3.502;2023-05-19T05:25:06;20.27;;;8.52;;
31798;SDS011;18374;51.136;3.502;2023-05-19T05:27:35;16.77;;;8.40;;
31798;SDS011;18374;51.136;3.502;2023-05-19T05:30:05;22.00;;;9.60;;
31798;SDS011;18374;51.136;3.502;2023-05-19T05:32:34;17.10;;;8.23;;
31798;SDS011;18374;51.136;3.502;2023-05-19T05:35:07;14.25;;;7.47;;
31798;SDS011;18374;51.136;3.502;2023-05-19T05:37:36;17.60;;;8.15;;
31798;SDS011;18374;51.136;3.502;2023-05-19T05:40:04;15.88;;;8.32;;
31798;SDS011;18374;51.136;3.502;2023-05-19T05:42:34;22.20;;;9.23;;
31798;SDS011;18374;51.136;3.502;2023-05-19T05:45:02;19.17;;;8.52;;
31798;SDS011;18374;51.136;3.502;2023-05-19T05:47:31;16.65;;;8.60;;
31798;SDS011;18374;51.136;3.502;2023-05-19T05:49:59;16.45;;;8.23;;
31798;SDS011;18374;51.136;3.502;2023-05-19T05:52:28;15.52;;;8.55;;
31798;SDS011;18374;51.136;3.502;2023-05-19T05:54:59;14.65;;;7.57;;
31798;SDS011;18374;51.136;3.502;2023-05-19T05:57:28;17.50;;;8.48;;
31798;SDS011;18374;51.136;3.502;2023-05-19T06:00:02;15.82;;;7.68;;
31798;SDS011;18374;51.136;3.502;2023-05-19T06:02:44;21.48;;;8.57;;
31798;SDS011;18374;51.136;3.502;2023-05-19T06:05:14;16.15;;;7.40;;
31798;SDS011;18374;51.136;3.502;2023-05-19T06:07:44;16.08;;;8.00;;
31798;SDS011;18374;51.136;3.502;2023-05-19T06:10:18;15.80;;;8.00;;
31798;SDS011;18374;51.136;3.502;2023-05-19T06:12:48;17.38;;;7.90;;
31798;SDS011;18374;51.136;3.502;2023-05-19T06:15:16;16.20;;;7.50;;
31798;SDS011;18374;51.136;3.502;2023-05-19T06:17:57;17.85;;;8.13;;
31798;SDS011;18374;51.136;3.502;2023-05-19T06:20:25;18.67;;;7.85;;
31798;SDS011;18374;51.136;3.502;2023-05-19T06:22:54;16.77;;;7.47;;
31798;SDS011;18374;51.136;3.502;2023-05-19T06:25:25;14.88;;;7.60;;
31798;SDS011;18374;51.136;3.502;2023-05-19T06:27:54;16.58;;;7.82;;
31798;SDS011;18374;51.136;3.502;2023-05-19T06:30:23;15.27;;;7.78;;
31798;SDS011;18374;51.136;3.502;2023-05-19T06:33:05;16.05;;;7.82;;
31798;SDS011;18374;51.136;3.502;2023-05-19T06:35:33;14.52;;;8.55;;
31798;SDS011;18374;51.136;3.502;2023-05-19T06:38:01;11.52;;;7.55;;
31798;SDS011;18374;51.136;3.502;2023-05-19T06:40:29;18.20;;;7.97;;
31798;SDS011;18374;51.136;3.502;2023-05-19T06:42:57;14.48;;;7.80;;
31798;SDS011;18374;51.136;3.502;2023-05-19T06:45:47;19.58;;;8.52;;
31798;SDS011;18374;51.136;3.502;2023-05-19T06:48:15;10.80;;;6.55;;
31798;SDS011;18374;51.136;3.502;2023-05-19T06:50:43;16.35;;;8.25;;
31798;SDS011;18374;51.136;3.502;2023-05-19T06:53:12;15.30;;;8.07;;
31798;SDS011;18374;51.136;3.502;2023-05-19T06:55:39;17.60;;;8.30;;
31798;SDS011;18374;51.136;3.502;2023-05-19T06:58:22;12.88;;;7.85;;
31798;SDS011;18374;51.136;3.502;2023-05-19T07:00:50;17.90;;;7.65;;
31798;SDS011;18374;51.136;3.502;2023-05-19T07:03:18;16.13;;;8.05;;
31798;SDS011;18374;51.136;3.502;2023-05-19T07:05:46;11.82;;;7.10;;
31798;SDS011;18374;51.136;3.502;2023-05-19T07:08:14;16.63;;;8.23;;
31798;SDS011;18374;51.136;3.502;2023-05-19T07:10:42;10.70;;;6.95;;
31798;SDS011;18374;51.136;3.502;2023-05-19T07:13:12;17.88;;;8.20;;
31798;SDS011;18374;51.136;3.502;2023-05-19T07:15:40;17.58;;;7.90;;
31798;SDS011;18374;51.136;3.502;2023-05-19T07:18:08;13.88;;;8.40;;
31798;SDS011;18374;51.136;3.502;2023-05-19T07:20:36;13.88;;;8.25;;
31798;SDS011;18374;51.136;3.502;2023-05-19T07:23:04;11.77;;;7.32;;
31798;SDS011;18374;51.136;3.502;2023-05-19T07:25:31;19.50;;;8.50;;
31798;SDS011;18374;51.136;3.502;2023-05-19T07:27:59;14.48;;;7.95;;
31798;SDS011;18374;51.136;3.502;2023-05-19T07:30:27;18.35;;;7.65;;
31798;SDS011;18374;51.136;3.502;2023-05-19T07:32:56;13.95;;;7.55;;
31798;SDS011;18374;51.136;3.502;2023-05-19T07:35:24;15.73;;;7.63;;
31798;SDS011;18374;51.136;3.502;2023-05-19T07:37:52;13.10;;;7.20;;
31798;SDS011;18374;51.136;3.502;2023-05-19T07:40:20;14.63;;;8.10;;
31798;SDS011;18374;51.136;3.502;2023-05-19T07:42:48;11.43;;;6.93;;
31798;SDS011;18374;51.136;3.502;2023-05-19T07:45:16;17.25;;;8.55;;
31798;SDS011;18374;51.136;3.502;2023-05-19T07:47:44;14.35;;;7.45;;
31798;SDS011;18374;51.136;3.502;2023-05-19T07:50:12;19.08;;;7.80;;
31798;SDS011;18374;51.136;3.502;2023-05-19T07:52:40;15.55;;;7.15;;
31798;SDS011;18374;51.136;3.502;2023-05-19T07:55:08;18.58;;;8.20;;
31798;SDS011;18374;51.136;3.502;2023-05-19T07:57:36;19.15;;;7.50;;
31798;SDS011;18374;51.136;3.502;2023-05-19T08:00:04;16.05;;;7.53;;
31798;SDS011;18374;51.136;3.502;2023-05-19T08:02:37;14.90;;;7.70;;
31798;SDS011;18374;51.136;3.502;2023-05-19T08:05:05;10.68;;;6.28;;
31798;SDS011;18374;51.136;3.502;2023-05-19T08:07:35;18.08;;;7.32;;
31798;SDS011;18374;51.136;3.502;2023-05-19T08:10:03;15.20;;;7.10;;
31798;SDS011;18374;51.136;3.502;2023-05-19T08:12:31;13.20;;;6.45;;
31798;SDS011;18374;51.136;3.502;2023-05-19T08:14:58;12.13;;;6.80;;
31798;SDS011;18374;51.136;3.502;2023-05-19T08:17:28;13.07;;;6.38;;
31798;SDS011;18374;51.136;3.502;2023-05-19T08:19:55;15.63;;;6.55;;
31798;SDS011;18374;51.136;3.502;2023-05-19T08:22:24;13.13;;;6.60;;
31798;SDS011;18374;51.136;3.502;2023-05-19T08:24:51;8.88;;;6.18;;
31798;SDS011;18374;51.136;3.502;2023-05-19T08:27:21;10.38;;;6.60;;
31798;SDS011;18374;51.136;3.502;2023-05-19T08:29:48;12.23;;;6.55;;
31798;SDS011;18374;51.136;3.502;2023-05-19T08:32:17;12.43;;;6.45;;
31798;SDS011;18374;51.136;3.502;2023-05-19T08:34:44;12.65;;;7.07;;
31798;SDS011;18374;51.136;3.502;2023-05-19T08:37:12;15.75;;;6.90;;
31798;SDS011;18374;51.136;3.502;2023-05-19T08:39:40;9.90;;;6.50;;
31798;SDS011;18374;51.136;3.502;2023-05-19T08:42:08;14.88;;;6.75;;
31798;SDS011;18374;51.136;3.502;2023-05-19T08:44:36;12.70;;;6.88;;
31798;SDS011;18374;51.136;3.502;2023-05-19T08:47:06;12.57;;;5.90;;
31798;SDS011;18374;51.136;3.502;2023-05-19T08:49:45;14.77;;;6.15;;
31798;SDS011;18374;51.136;3.502;2023-05-19T08:52:24;8.80;;;5.80;;
31798;SDS011;18374;51.136;3.502;2023-05-19T08:55:07;9.95;;;5.75;;
31798;SDS011;18374;51.136;3.502;2023-05-19T08:57:48;14.27;;;6.28;;
31798;SDS011;18374;51.136;3.502;2023-05-19T09:00:16;10.00;;;5.40;;
31798;SDS011;18374;51.136;3.502;2023-05-19T09:02:47;16.27;;;6.10;;
31798;SDS011;18374;51.136;3.502;2023-05-19T09:05:27;11.75;;;6.00;;
31798;SDS011;18374;51.136;3.502;2023-05-19T09:07:55;11.75;;;6.00;;
31798;SDS011;18374;51.136;3.502;2023-05-19T09:10:23;12.30;;;5.32;;
31798;SDS011;18374;51.136;3.502;2023-05-19T09:12:53;14.38;;;6.47;;
31798;SDS011;18374;51.136;3.502;2023-05-19T09:15:21;11.90;;;5.88;;
31798;SDS011;18374;51.136;3.502;2023-05-19T09:18:09;17.20;;;6.53;;
31798;SDS011;18374;51.136;3.502;2023-05-19T09:20:40;12.70;;;5.38;;
31798;SDS011;18374;51.136;3.502;2023-05-19T09:23:14;11.15;;;5.60;;
31798;SDS011;18374;51.136;3.502;2023-05-19T09:25:50;10.88;;;4.85;;
31798;SDS011;18374;51.136;3.502;2023-05-19T09:31:03;13.15;;;5.25;;
31798;SDS011;18374;51.136;3.502;2023-05-19T09:33:36;11.80;;;4.95;;
31798;SDS011;18374;51.136;3.502;2023-05-19T09:36:10;14.93;;;5.38;;
31798;SDS011;18374;51.136;3.502;2023-05-19T09:38:38;8.95;;;4.88;;
31798;SDS011;18374;51.136;3.502;2023-05-19T09:41:06;11.77;;;5.03;;
31798;SDS011;18374;51.136;3.502;2023-05-19T09:43:35;11.00;;;4.93;;
31798;SDS011;18374;51.136;3.502;2023-05-19T09:46:06;9.35;;;4.93;;
31798;SDS011;18374;51.136;3.502;2023-05-19T09:48:40;12.65;;;5.43;;
31798;SDS011;18374;51.136;3.502;2023-05-19T09:51:08;11.05;;;5.85;;
31798;SDS011;18374;51.136;3.502;2023-05-19T09:53:37;8.52;;;4.70;;
31798;SDS011;18374;51.136;3.502;2023-05-19T09:56:05;11.18;;;4.70;;
31798;SDS011;18374;51.136;3.502;2023-05-19T09:58:36;10.38;;;5.05;;
31798;SDS011;18374;51.136;3.502;2023-05-19T10:01:04;8.77;;;4.10;;
31798;SDS011;18374;51.136;3.502;2023-05-19T10:03:33;12.73;;;4.68;;
31798;SDS011;18374;51.136;3.502;2023-05-19T10:06:02;10.65;;;5.15;;
31798;SDS011;18374;51.136;3.502;2023-05-19T10:08:32;8.48;;;4.65;;
31798;SDS011;18374;51.136;3.502;2023-05-19T10:11:01;13.30;;;4.68;;
31798;SDS011;18374;51.136;3.502;2023-05-19T10:13:29;11.18;;;4.50;;
31798;SDS011;18374;51.136;3.502;2023-05-19T10:16:01;9.32;;;4.05;;
31798;SDS011;18374;51.136;3.502;2023-05-19T10:18:29;10.30;;;3.75;;
31798;SDS011;18374;51.136;3.502;2023-05-19T10:21:02;6.80;;;3.83;;
31798;SDS011;18374;51.136;3.502;2023-05-19T10:23:30;9.20;;;3.50;;
31798;SDS011;18374;51.136;3.502;2023-05-19T10:25:59;6.15;;;3.15;;
31798;SDS011;18374;51.136;3.502;2023-05-19T10:28:35;7.53;;;3.38;;
31798;SDS011;18374;51.136;3.502;2023-05-19T10:31:06;6.03;;;3.97;;
31798;SDS011;18374;51.136;3.502;2023-05-19T10:33:55;6.95;;;3.45;;
31798;SDS011;18374;51.136;3.502;2023-05-19T10:39:24;8.05;;;4.03;;
31798;SDS011;18374;51.136;3.502;2023-05-19T10:42:18;10.10;;;3.67;;
31798;SDS011;18374;51.136;3.502;2023-05-19T10:45:16;10.73;;;3.35;;
31798;SDS011;18374;51.136;3.502;2023-05-19T10:47:50;3.85;;;2.65;;
31798;SDS011;18374;51.136;3.502;2023-05-19T10:50:18;7.50;;;2.97;;
31798;SDS011;18374;51.136;3.502;2023-05-19T10:52:51;10.40;;;3.30;;
31798;SDS011;18374;51.136;3.502;2023-05-19T10:55:43;8.73;;;3.17;;
31798;SDS011;18374;51.136;3.502;2023-05-19T10:58:38;6.55;;;3.25;;
31798;SDS011;18374;51.136;3.502;2023-05-19T11:01:16;7.25;;;3.00;;
31798;SDS011;18374;51.136;3.502;2023-05-19T11:03:50;9.57;;;2.38;;
31798;SDS011;18374;51.136;3.502;2023-05-19T11:08:51;8.23;;;2.78;;
31798;SDS011;18374;51.136;3.502;2023-05-19T11:11:21;9.30;;;2.83;;
31798;SDS011;18374;51.136;3.502;2023-05-19T11:13:50;5.80;;;2.50;;
31798;SDS011;18374;51.136;3.502;2023-05-19T11:16:27;8.48;;;2.72;;
31798;SDS011;18374;51.136;3.502;2023-05-19T11:18:57;12.00;;;2.90;;
31798;SDS011;18374;51.136;3.502;2023-05-19T11:27:23;7.20;;;2.20;;
31798;SDS011;18374;51.136;3.502;2023-05-19T11:30:00;4.78;;;2.03;;
31798;SDS011;18374;51.136;3.502;2023-05-19T11:32:33;7.13;;;2.08;;
31798;SDS011;18374;51.136;3.502;2023-05-19T11:35:05;4.70;;;1.70;;
31798;SDS011;18374;51.136;3.502;2023-05-19T11:37:34;6.07;;;1.92;;
31798;SDS011;18374;51.136;3.502;2023-05-19T11:40:03;18.83;;;2.80;;
31798;SDS011;18374;51.136;3.502;2023-05-19T11:42:35;7.90;;;2.35;;
31798;SDS011;18374;51.136;3.502;2023-05-19T11:45:03;4.78;;;2.50;;
31798;SDS011;18374;51.136;3.502;2023-05-19T11:47:32;6.85;;;2.47;;
31798;SDS011;18374;51.136;3.502;2023-05-19T11:50:20;4.50;;;2.10;;
31798;SDS011;18374;51.136;3.502;2023-05-19T11:52:47;5.00;;;2.10;;
31798;SDS011;18374;51.136;3.502;2023-05-19T11:55:21;6.30;;;1.80;;
31798;SDS011;18374;51.136;3.502;2023-05-19T11:58:01;5.10;;;1.90;;
31798;SDS011;18374;51.136;3.502;2023-05-19T12:00:36;4.55;;;1.67;;
31798;SDS011;18374;51.136;3.502;2023-05-19T12:03:07;5.85;;;2.20;;
31798;SDS011;18374;51.136;3.502;2023-05-19T12:05:36;4.72;;;2.00;;
31798;SDS011;18374;51.136;3.502;2023-05-19T12:08:11;5.63;;;2.00;;
31798;SDS011;18374;51.136;3.502;2023-05-19T12:10:39;8.73;;;2.42;;
31798;SDS011;18374;51.136;3.502;2023-05-19T12:13:07;5.57;;;2.38;;
31798;SDS011;18374;51.136;3.502;2023-05-19T12:15:38;8.63;;;2.50;;
31798;SDS011;18374;51.136;3.502;2023-05-19T12:18:07;5.80;;;2.13;;
31798;SDS011;18374;51.136;3.502;2023-05-19T12:20:34;5.53;;;2.38;;
31798;SDS011;18374;51.136;3.502;2023-05-19T12:23:03;6.78;;;2.15;;
31798;SDS011;18374;51.136;3.502;2023-05-19T12:25:31;5.47;;;2.88;;
31798;SDS011;18374;51.136;3.502;2023-05-19T12:28:00;5.22;;;2.50;;
31798;SDS011;18374;51.136;3.502;2023-05-19T12:30:31;7.72;;;2.35;;
31798;SDS011;18374;51.136;3.502;2023-05-19T12:33:01;8.68;;;2.60;;
31798;SDS011;18374;51.136;3.502;2023-05-19T12:35:30;5.53;;;2.67;;
31798;SDS011;18374;51.136;3.502;2023-05-19T12:38:02;7.60;;;2.60;;
31798;SDS011;18374;51.136;3.502;2023-05-19T12:40:32;6.90;;;2.38;;
31798;SDS011;18374;51.136;3.502;2023-05-19T12:43:02;7.45;;;2.90;;
31798;SDS011;18374;51.136;3.502;2023-05-19T12:45:34;7.00;;;2.10;;
31798;SDS011;18374;51.136;3.502;2023-05-19T12:48:03;7.03;;;2.40;;
31798;SDS011;18374;51.136;3.502;2023-05-19T12:50:33;8.35;;;2.30;;
31798;SDS011;18374;51.136;3.502;2023-05-19T12:53:06;7.88;;;2.65;;
31798;SDS011;18374;51.136;3.502;2023-05-19T12:55:40;5.53;;;2.47;;
31798;SDS011;18374;51.136;3.502;2023-05-19T12:58:09;5.93;;;2.38;;
31798;SDS011;18374;51.136;3.502;2023-05-19T13:00:41;7.97;;;2.63;;
31798;SDS011;18374;51.136;3.502;2023-05-19T13:03:17;9.07;;;2.95;;
31798;SDS011;18374;51.136;3.502;2023-05-19T13:05:47;7.28;;;2.20;;
31798;SDS011;18374;51.136;3.502;2023-05-19T13:08:20;5.70;;;2.60;;
31798;SDS011;18374;51.136;3.502;2023-05-19T13:10:51;7.88;;;3.65;;
31798;SDS011;18374;51.136;3.502;2023-05-19T13:13:20;7.13;;;3.45;;
31798;SDS011;18374;51.136;3.502;2023-05-19T13:15:48;8.63;;;3.15;;
31798;SDS011;18374;51.136;3.502;2023-05-19T13:18:16;6.03;;;2.70;;
31798;SDS011;18374;51.136;3.502;2023-05-19T13:20:44;7.88;;;3.25;;
31798;SDS011;18374;51.136;3.502;2023-05-19T13:23:13;12.63;;;4.00;;
31798;SDS011;18374;51.136;3.502;2023-05-19T13:25:42;11.10;;;3.38;;
31798;SDS011;18374;51.136;3.502;2023-05-19T13:28:10;6.55;;;3.00;;
31798;SDS011;18374;51.136;3.502;2023-05-19T13:30:39;11.63;;;3.10;;
31798;SDS011;18374;51.136;3.502;2023-05-19T13:33:08;8.43;;;2.53;;
31798;SDS011;18374;51.136;3.502;2023-05-19T13:35:35;5.57;;;3.15;;
31798;SDS011;18374;51.136;3.502;2023-05-19T13:38:04;7.72;;;3.17;;
31798;SDS011;18374;51.136;3.502;2023-05-19T13:40:36;11.85;;;3.90;;
31798;SDS011;18374;51.136;3.502;2023-05-19T13:43:06;6.60;;;3.15;;
31798;SDS011;18374;51.136;3.502;2023-05-19T13:45:34;6.75;;;3.05;;
31798;SDS011;18374;51.136;3.502;2023-05-19T13:48:03;9.85;;;3.65;;
31798;SDS011;18374;51.136;3.502;2023-05-19T13:50:33;8.18;;;3.25;;
31798;SDS011;18374;51.136;3.502;2023-05-19T13:53:01;7.50;;;4.05;;
31798;SDS011;18374;51.136;3.502;2023-05-19T13:55:29;7.72;;;3.08;;
31798;SDS011;18374;51.136;3.502;2023-05-19T13:57:58;6.22;;;3.13;;
31798;SDS011;18374;51.136;3.502;2023-05-19T14:00:26;6.90;;;3.15;;
31798;SDS011;18374;51.136;3.502;2023-05-19T14:02:54;5.53;;;3.13;;
31798;SDS011;18374;51.136;3.502;2023-05-19T14:05:22;10.00;;;2.92;;
31798;SDS011;18374;51.136;3.502;2023-05-19T14:07:50;8.43;;;3.10;;
31798;SDS011;18374;51.136;3.502;2023-05-19T14:10:19;19.42;;;4.20;;
31798;SDS011;18374;51.136;3.502;2023-05-19T14:12:47;7.63;;;2.90;;
31798;SDS011;18374;51.136;3.502;2023-05-19T14:15:35;8.32;;;3.42;;
31798;SDS011;18374;51.136;3.502;2023-05-19T14:18:04;8.05;;;3.60;;
31798;SDS011;18374;51.136;3.502;2023-05-19T14:20:33;7.43;;;3.38;;
31798;SDS011;18374;51.136;3.502;2023-05-19T14:23:01;5.82;;;2.83;;
31798;SDS011;18374;51.136;3.502;2023-05-19T14:25:29;6.65;;;2.97;;
31798;SDS011;18374;51.136;3.502;2023-05-19T14:27:57;6.53;;;2.33;;
31798;SDS011;18374;51.136;3.502;2023-05-19T14:30:25;5.13;;;2.47;;
31798;SDS011;18374;51.136;3.502;2023-05-19T14:32:53;8.98;;;2.53;;
31798;SDS011;18374;51.136;3.502;2023-05-19T14:35:21;11.30;;;4.28;;
31798;SDS011;18374;51.136;3.502;2023-05-19T14:37:49;13.10;;;4.95;;
31798;SDS011;18374;51.136;3.502;2023-05-19T14:40:17;8.13;;;4.15;;
31798;SDS011;18374;51.136;3.502;2023-05-19T14:42:45;10.23;;;4.47;;
31798;SDS011;18374;51.136;3.502;2023-05-19T14:45:13;13.88;;;5.13;;
31798;SDS011;18374;51.136;3.502;2023-05-19T14:47:41;13.43;;;5.05;;
31798;SDS011;18374;51.136;3.502;2023-05-19T14:50:09;14.02;;;5.13;;
31798;SDS011;18374;51.136;3.502;2023-05-19T14:52:37;13.25;;;5.80;;
31798;SDS011;18374;51.136;3.502;2023-05-19T14:55:05;14.15;;;6.22;;
31798;SDS011;18374;51.136;3.502;2023-05-19T14:57:33;9.98;;;6.13;;
31798;SDS011;18374;51.136;3.502;2023-05-19T15:00:01;14.05;;;5.68;;
31798;SDS011;18374;51.136;3.502;2023-05-19T15:02:29;17.98;;;5.80;;
31798;SDS011;18374;51.136;3.502;2023-05-19T15:04:57;12.07;;;5.00;;
31798;SDS011;18374;51.136;3.502;2023-05-19T15:07:26;16.50;;;5.72;;
31798;SDS011;18374;51.136;3.502;2023-05-19T15:09:54;8.05;;;5.25;;
31798;SDS011;18374;51.136;3.502;2023-05-19T15:12:22;10.88;;;4.55;;
31798;SDS011;18374;51.136;3.502;2023-05-19T15:14:50;15.90;;;5.45;;
31798;SDS011;18374;51.136;3.502;2023-05-19T15:17:18;13.80;;;5.43;;
31798;SDS011;18374;51.136;3.502;2023-05-19T15:19:45;13.75;;;5.20;;